METAR & TAF for CYVR, CYYJ, CYXX, CYCD, CYPW, CYBL, CYQQ, CYZT, CYHE, CYYF, CYDC, CYKA
COLOR CODES: TCU CB CU SC ACC RA SN DZ CIG TEMP/DEW


Request Generated 10/06/2007 at 23:01:27 UTC . Weather information available at that time is displayed.

METAR/TAF

VANCOUVER/VANCOUVER INTL/BC

METAR CYVR 062000Z 11011KT 3SM -DZ FEW006 BKN010 OVC013 09/07 A3016 RMK SF2SC5SC2 SLP214 =
METAR CYVR 062100Z 11009KT 2 1/2SM -DZ FEW006 BKN012 OVC015 09/07 A3015 RMK SF2SC6SC1 SLP209 =
SPECI CYVR 062109Z 09010KT 2 1/2SM -DZ BR FEW006 BKN011 OVC015 09/ RMK SF2ST5SC2=
SPECI CYVR 062114Z 08010KT 3SM -DZ BR FEW006 BKN011 OVC015 09/ RMK SF2ST5SC2=
METAR CYVR 062200Z 08010KT 4SM -RADZ BR FEW005 BKN011 OVC016 09/07 A3013 RMK SF2ST3SC2 SLP202 =
SPECI CYVR 062228Z 09010KT 2 1/2SM -DZ BR FEW005 BKN011 OVC013 09/ RMK SF2ST4SC2=

TAF AMD CYVR 062112Z 062118 11010KT P6SM -RA SCT010 OVC020
TEMPO 2102 2SM -RA BR OVC010
FM0200Z 13015G25KT P6SM -RA SCT006 OVC010
TEMPO 0212 2SM RA BR
FM1200Z 14020G30KT 4SM -RA BR OVC010 RMK NXT FCST BY 00Z=

VICTORIA/VICTORIA INTL/BC

METAR CYYJ 062000Z 12007KT 5/8SM -RA BR FEW005 BKN011 OVC019 09/08 A3013 RMK SF1SF6SC2 SLP204 =
SPECI CYYJ 062040Z 11005KT 1 1/2SM -RA BR FEW006 SCT012 BKN017 OVC028 09/ RMK SF1SF3SC4SC1=
METAR CYYJ 062100Z 11006KT 1SM -RA BR FEW004 FEW010 BKN014 OVC030 09/08 A3011 RMK SF1SF2SC5SC1 SLP198 =
METAR CYYJ 062200Z 10006KT 3/4SM -RA BR FEW005 SCT012 BKN017 OVC030 10/08 A3010 RMK SF1SF3SC4SC1 SLP194 =
SPECI CYYJ 062231Z 12008KT 3SM -RA BR FEW008 SCT016 BKN023 OVC038 10/ RMK SF1SC3SC4SC1=
SPECI CYYJ 062247Z 11008KT 12SM FEW009 FEW017 BKN036 BKN060 10/ RMK SF1SC2SC4SC1=

TAF AMD CYYJ 062229Z 062218 12008KT 3/4SM -RA BR OVC008
TEMPO 2224 5SM -RA BR SCT008 OVC015
FM0000Z 12010KT 6SM -RA BR OVC015
TEMPO 0009 2SM -RA BR OVC008
FM0900Z 15015KT P6SM OVC015
TEMPO 0918 P6SM -RA RMK NXT FCST BY 00Z=

ABBOTSFORD/BC

METAR CYXX 062000Z 01004KT 7SM -RA FEW011 BKN018 OVC050 10/06 A3016 RMK SF2SC4SC2 PCPN VRY LGT SLP215 =
METAR CYXX 062100Z 02007KT 5SM -RA BR FEW011 BKN016 OVC040 10/07 A3015 RMK SF2SC5SC1 SLP210 =
SPECI CYXX 062121Z 01007KT 2 1/2SM -DZ BR FEW007 OVC013 RMK SF2ST6=
METAR CYXX 062200Z 04005KT 2 1/2SM -DZ BR FEW007 BKN013 OVC040 10/07 A3014 RMK SF2ST3SC2 SLP209 =
SPECI CYXX 062219Z 05004KT 5SM -DZ BR SCT008 BKN014 OVC040 RMK SF3ST2SC2=

TAF AMD CYXX 062125Z 062118 01005KT P6SM -RA SCT010 OVC025
TEMPO 2102 2SM -DZ BR OVC010
FM0200Z 12005KT 5SM -RA BR SCT006 OVC010
TEMPO 0218 2SM RA BR OVC006 RMK NXT FCST BY 00Z=

NANAIMO/BC

METAR CYCD 062000Z 12005KT 2SM BR BKN005 OVC009 09/08 A3013 RMK SF7SF1 SLP204 =
SPECI CYCD 062038Z 10006KT 2SM -DZ BR BKN005 OVC009 RMK SF6SF2=
METAR CYCD 062100Z 10005KT 2SM -DZ BR BKN005 OVC009 09/08 A3012 RMK SF6SF2 CIG RAG SLP199 =
METAR CYCD 062200Z 10008KT 3SM -DZ BR BKN006 OVC009 09/08 A3009 RMK SF5SF3 CIG RAG VIS S 11/2 SLP190 =

TAF AMD CYCD 062003Z 062004 12006KT 2SM BR OVC005
TEMPO 2022 5SM -RA BR SCT005 OVC008
FM2200Z 13012KT P6SM -RA SCT006 OVC020
TEMPO 2204 3SM -RA BR OVC006 RMK NXT FCST BY 00Z=

POWELL RIVER/BC

METAR CYPW 062000Z 10011KT 20SM -RA FEW004 BKN009 OVC035 08/06 A3010 RMK SF1SF6SC2 SLP195 =
SPECI CYPW 062025Z 11008G19KT 15SM -RA FEW004 SCT009 BKN030 OVC040 RMK SF1SF3SC3SC2=
METAR CYPW 062100Z 10008G16KT 10SM -RA FEW004 BKN008 OVC030 08/06 A3008 RMK SF1SF6SC2 VIS N-NE 3 IN LO CLD SLP190 =
METAR CYPW 062200Z 11011G19KT 8SM -RA FEW003 BKN007 OVC030 08/07 A3004 RMK SF1SF6SC2 SLP175 =

CYPW - No TAF is issued for this station

CAMPBELL RIVER/BC

METAR CYBL 062000Z 14013G18KT 1 1/2SM -RA BR SCT004 BKN007 OVC015 08/08 A3006 RMK SF3SF3SC2 SLP183 =
METAR CYBL 062100Z 13015G22KT 1 1/2SM -RA BR SCT004 BKN007 OVC015 08/08 A3004 RMK SF4SF2SC2 SLP175 =
METAR CYBL 062200Z 14015G24KT 1 1/2SM -RA BR SCT003 BKN009 OVC018 08/08 A3000 RMK SF3SF3SC2 SLP163 =

TAF AMD CYBL 062103Z 062104 15015G25KT 5SM -RA BR SCT004 OVC010
TEMPO 2104 1SM -SHRA BR OVC004 RMK NXT FCST BY 01Z=

COMOX/BC

METAR CYQQ 062000Z 15020G26KT 15SM -SHRA BKN010 OVC030 09/06 A3008 RMK SC6SC2 CIG VRB 7-13 SLP188 =
METAR CYQQ 062100Z 14019G26KT 15SM -SHRA SCT009 OVC012 09/07 A3006 RMK SF3SC5 SLP181 =
METAR CYQQ 062200Z 15021G27KT 12SM -SHRA BKN010 BKN015 OVC020 09/06 A3002 RMK SC5SC2SC2 PCPN VRY LGT SLP167 =

TAF CYQQ 061730Z 061818 15015G25KT P6SM SCT010 OVC030
TEMPO 1823 4SM -SHRA BR BKN008 OVC030
FM2300Z 14020G30KT 6SM -RA BR OVC015
TEMPO 2311 3SM -RA BR OVC007
FM1100Z 13015G25KT P6SM -SHRA SCT015 BKN025
FM1700Z 16015KT P6SM SCT030 BKN060 RMK NXT FCST BY 00Z=

PORT HARDY/BC

METAR CYZT 062000Z 11010G15KT 20SM -RA FEW028 BKN038 OVC073 09/07 A2989 RMK SC1SC4AC3 SLP120 =
METAR CYZT 062100Z 10012G20KT 5SM RA BR FEW023 OVC040 09/07 A2985 RMK SC2SC6 SLP108 =
METAR CYZT 062200Z 10010G16KT 3SM RA BR SCT010 OVC030 09/07 A2981 RMK SF3SC5 SLP095 =

TAF CYZT 061838Z 061907 11012G22KT P6SM SCT020 BKN040
TEMPO 1921 P6SM -RA
FM2100Z 12015G25KT P6SM -RA SCT012 OVC025
TEMPO 2107 3SM -RA BR BKN012 RMK NXT FCST BY 01Z=

HOPE/BC

METAR CYHE 062000Z AUTO 29005KT 9SM OVC035 OVC092 10/06 A3015 RMK SLP212 =
METAR CYHE 062100Z AUTO 28004KT 9SM BKN041 BKN062 OVC071 10/06 A3013 RMK SLP205 =
METAR CYHE 062200Z AUTO 22002KT 9SM BKN041 OVC054 11/07 A3012 RMK SLP201 =

CYHE - No TAF is issued for this station

PENTICTON/BC

METAR CYYF 062000Z 17008KT 15SM BKN070 BKN100 14/03 A3004 RMK AC6AC2 SLP183 =
METAR CYYF 062100Z 18010G15KT 15SM BKN070 BKN100 14/03 A3003 RMK AC6AC2 SLP176 =
METAR CYYF 062200Z 18012KT 15SM BKN075 BKN100 15/03 A3002 RMK AC5AC2 SLP172 =

TAF CYYF 061838Z 061907 18010KT P6SM SCT100 BKN250
FM0300Z 18015G25KT P6SM BKN060
TEMPO 0307 P6SM -RA RMK NXT FCST BY 01Z=

PRINCETON/BC

METAR CYDC 062100Z 12002KT 15SM BKN045 11/02 A3002 RMK SC7 SLP175 =
METAR CYDC 062200Z 19004KT 15SM OVC045 12/03 A3002 RMK SC8 SLP176 =
METAR CYDC 062300Z 19003KT 15SM BKN045 OVC120 11/03 A3002 RMK SC7AS1 SLP175 =

CYDC - No TAF is issued for this station

KAMLOOPS/BC

METAR CYKA 062100Z 10016KT 40SM FEW070 BKN220 16/03 A2995 RMK AC1CI2 SLP146 =
METAR CYKA 062200Z 10017KT 40SM FEW070 FEW160 BKN220 15/03 A2993 RMK AC1AC2CI2 SLP142 =
METAR CYKA 062300Z 11018G25KT 40SM FEW070 OVC160 14/04 A2991 RMK AC1AC6 SLP136 =

TAF CYKA 061838Z 061907 11010KT P6SM SCT080 BKN250
FM0300Z 12015KT P6SM OVC050
TEMPO 0307 P6SM -RA RMK NXT FCST BY 01Z=